Terminal Aerodrome Forecast
Issued by NWS

Home | Current Version | Previous Version | Text Only | Print | Product List | Glossary On
Versions: 1 2 3 4 5 6 7 8 9 10 11 12 13 14 15 16 17 18
000
FTUS43 KDDC 070520
TAFHYS
TAF
KHYS 070520Z 0706/0806 06005KT P6SM BKN080
     FM071200 04012G20KT P6SM -SHSN OVC035
     FM071700 03015G22KT P6SM OVC020
     FM072200 36012KT P6SM BKN045
     FM080100 34008KT P6SM BKN060=

USA.gov is the U.S. government's official web portal to all federal, state and local government web resources and services.